sensor_id;sensor_type;location;lat;lon;timestamp;pressure;altitude;pressure_sealevel;temperature;humidity
75585;BME280;64162;53.508;10.476;2023-02-15T00:00:00;102587.13;;;5.52;75.51
75585;BME280;64162;53.508;10.476;2023-02-15T00:02:30;102587.91;;;5.56;75.25
75585;BME280;64162;53.508;10.476;2023-02-15T00:04:57;102582.47;;;5.63;75.66
75585;BME280;64162;53.508;10.476;2023-02-15T00:07:23;102572.91;;;5.62;75.13
75585;BME280;64162;53.508;10.476;2023-02-15T00:09:50;102569.34;;;5.65;75.42
75585;BME280;64162;53.508;10.476;2023-02-15T00:12:16;102569.34;;;5.65;75.46
75585;BME280;64162;53.508;10.476;2023-02-15T00:14:43;102563.13;;;5.69;75.53
75585;BME280;64162;53.508;10.476;2023-02-15T00:17:10;102561.50;;;5.65;75.28
75585;BME280;64162;53.508;10.476;2023-02-15T00:19:36;102560.56;;;5.68;75.14
75585;BME280;64162;53.508;10.476;2023-02-15T00:22:03;102552.69;;;5.69;75.05
75585;BME280;64162;53.508;10.476;2023-02-15T00:24:29;102564.94;;;5.67;74.97
75585;BME280;64162;53.508;10.476;2023-02-15T00:26:56;102561.50;;;5.65;75.14
75585;BME280;64162;53.508;10.476;2023-02-15T00:29:22;102564.84;;;5.70;75.03
75585;BME280;64162;53.508;10.476;2023-02-15T00:31:49;102566.66;;;5.68;74.98
75585;BME280;64162;53.508;10.476;2023-02-15T00:34:21;102554.44;;;5.69;75.38
75585;BME280;64162;53.508;10.476;2023-02-15T00:36:49;102558.75;;;5.70;75.34
75585;BME280;64162;53.508;10.476;2023-02-15T00:39:16;102558.69;;;5.73;74.94
75585;BME280;64162;53.508;10.476;2023-02-15T00:41:43;102551.69;;;5.73;74.75
75585;BME280;64162;53.508;10.476;2023-02-15T00:44:11;102545.59;;;5.73;75.22
75585;BME280;64162;53.508;10.476;2023-02-15T00:46:38;102544.66;;;5.75;74.87
75585;BME280;64162;53.508;10.476;2023-02-15T00:49:08;102543.75;;;5.76;75.20
75585;BME280;64162;53.508;10.476;2023-02-15T00:51:34;102550.56;;;5.80;74.78
75585;BME280;64162;53.508;10.476;2023-02-15T00:54:01;102554.91;;;5.81;74.74
75585;BME280;64162;53.508;10.476;2023-02-15T00:56:28;102552.19;;;5.84;74.47
75585;BME280;64162;53.508;10.476;2023-02-15T00:58:55;102553.16;;;5.82;74.76
75585;BME280;64162;53.508;10.476;2023-02-15T01:01:21;102546.09;;;5.84;74.70
75585;BME280;64162;53.508;10.476;2023-02-15T01:03:50;102546.88;;;5.89;74.44
75585;BME280;64162;53.508;10.476;2023-02-15T01:10:29;102539.94;;;5.86;74.65
75585;BME280;64162;53.508;10.476;2023-02-15T01:12:57;102525.00;;;5.91;74.66
75585;BME280;64162;53.508;10.476;2023-02-15T01:15:24;102521.31;;;5.97;74.66
75585;BME280;64162;53.508;10.476;2023-02-15T01:17:51;102525.75;;;5.95;74.83
75585;BME280;64162;53.508;10.476;2023-02-15T01:20:25;102525.00;;;5.91;74.40
75585;BME280;64162;53.508;10.476;2023-02-15T01:22:52;102521.56;;;5.88;74.47
75585;BME280;64162;53.508;10.476;2023-02-15T01:25:22;102517.94;;;5.93;74.06
75585;BME280;64162;53.508;10.476;2023-02-15T01:27:49;102512.63;;;5.96;74.73
75585;BME280;64162;53.508;10.476;2023-02-15T01:30:16;102508.25;;;5.97;74.63
75585;BME280;64162;53.508;10.476;2023-02-15T01:32:43;102516.94;;;5.97;75.05
75585;BME280;64162;53.508;10.476;2023-02-15T01:35:10;102512.63;;;5.96;74.12
75585;BME280;64162;53.508;10.476;2023-02-15T01:37:37;102505.69;;;5.95;74.18
75585;BME280;64162;53.508;10.476;2023-02-15T01:40:06;102514.28;;;5.99;74.50
75585;BME280;64162;53.508;10.476;2023-02-15T01:42:34;102512.47;;;6.01;74.40
75585;BME280;64162;53.508;10.476;2023-02-15T01:48:15;102499.44;;;6.00;74.62
75585;BME280;64162;53.508;10.476;2023-02-15T01:51:05;102493.31;;;6.01;74.81
75585;BME280;64162;53.508;10.476;2023-02-15T01:53:48;102487.94;;;6.05;74.77
75585;BME280;64162;53.508;10.476;2023-02-15T01:56:28;102500.13;;;6.06;74.66
75585;BME280;64162;53.508;10.476;2023-02-15T01:59:06;102499.22;;;6.07;74.75
75585;BME280;64162;53.508;10.476;2023-02-15T02:01:40;102494.22;;;6.00;74.83
75585;BME280;64162;53.508;10.476;2023-02-15T02:05:00;102498.50;;;6.02;74.92
75585;BME280;64162;53.508;10.476;2023-02-15T02:07:56;102502.06;;;6.00;74.77
75585;BME280;64162;53.508;10.476;2023-02-15T02:10:31;102500.34;;;5.99;74.72
75585;BME280;64162;53.508;10.476;2023-02-15T02:13:05;102487.50;;;5.91;74.60
75585;BME280;64162;53.508;10.476;2023-02-15T02:16:05;102498.03;;;5.89;74.75
75585;BME280;64162;53.508;10.476;2023-02-15T02:23:55;102485.09;;;5.83;74.71
75585;BME280;64162;53.508;10.476;2023-02-15T02:33:03;102460.97;;;5.75;74.77
75585;BME280;64162;53.508;10.476;2023-02-15T02:36:15;102463.59;;;5.75;74.86
75585;BME280;64162;53.508;10.476;2023-02-15T02:41:49;102463.81;;;5.68;75.37
75585;BME280;64162;53.508;10.476;2023-02-15T02:44:23;102466.63;;;5.61;75.46
75585;BME280;64162;53.508;10.476;2023-02-15T02:46:57;102457.97;;;5.59;75.52
75585;BME280;64162;53.508;10.476;2023-02-15T02:49:30;102458.84;;;5.58;75.46
75585;BME280;64162;53.508;10.476;2023-02-15T03:01:02;102443.41;;;5.51;75.52
75585;BME280;64162;53.508;10.476;2023-02-15T03:03:37;102439.16;;;5.47;75.38
75585;BME280;64162;53.508;10.476;2023-02-15T03:06:17;102442.97;;;5.37;75.85
75585;BME280;64162;53.508;10.476;2023-02-15T03:08:51;102435.03;;;5.40;75.85
75585;BME280;64162;53.508;10.476;2023-02-15T03:11:21;102431.56;;;5.39;75.55
75585;BME280;64162;53.508;10.476;2023-02-15T03:13:48;102430.78;;;5.36;75.64
75585;BME280;64162;53.508;10.476;2023-02-15T03:16:17;102423.03;;;5.32;75.57
75585;BME280;64162;53.508;10.476;2023-02-15T03:19:18;102424.78;;;5.32;75.68
75585;BME280;64162;53.508;10.476;2023-02-15T03:21:51;102419.72;;;5.27;75.42
75585;BME280;64162;53.508;10.476;2023-02-15T03:24:29;102422.22;;;5.30;75.44
75585;BME280;64162;53.508;10.476;2023-02-15T03:26:58;102417.03;;;5.29;75.31
75585;BME280;64162;53.508;10.476;2023-02-15T03:29:27;102408.44;;;5.25;75.45
75585;BME280;64162;53.508;10.476;2023-02-15T03:31:59;102410.34;;;5.20;75.62
75585;BME280;64162;53.508;10.476;2023-02-15T03:34:27;102407.78;;;5.19;75.44
75585;BME280;64162;53.508;10.476;2023-02-15T03:40:10;102398.25;;;5.18;75.38
75585;BME280;64162;53.508;10.476;2023-02-15T03:43:01;102391.53;;;5.09;75.43
75585;BME280;64162;53.508;10.476;2023-02-15T03:45:32;102389.91;;;5.05;75.36
75585;BME280;64162;53.508;10.476;2023-02-15T03:48:01;102390.03;;;5.01;75.18
75585;BME280;64162;53.508;10.476;2023-02-15T03:50:31;102385.75;;;4.98;75.29
75585;BME280;64162;53.508;10.476;2023-02-15T03:53:20;102385.81;;;4.96;75.76
75585;BME280;64162;53.508;10.476;2023-02-15T03:55:49;102385.00;;;4.94;76.04
75585;BME280;64162;53.508;10.476;2023-02-15T03:58:16;102391.03;;;4.96;75.53
75585;BME280;64162;53.508;10.476;2023-02-15T04:01:12;102388.38;;;4.98;75.39
75585;BME280;64162;53.508;10.476;2023-02-15T04:04:07;102389.50;;;4.89;75.49
75585;BME280;64162;53.508;10.476;2023-02-15T04:06:35;102392.88;;;4.93;75.29
75585;BME280;64162;53.508;10.476;2023-02-15T04:09:03;102390.16;;;4.96;75.27
75585;BME280;64162;53.508;10.476;2023-02-15T04:11:48;102389.22;;;4.98;75.60
75585;BME280;64162;53.508;10.476;2023-02-15T04:14:14;102382.25;;;4.99;75.31
75585;BME280;64162;53.508;10.476;2023-02-15T04:17:00;102382.41;;;4.93;75.16
75585;BME280;64162;53.508;10.476;2023-02-15T04:19:26;102379.03;;;4.89;75.36
75585;BME280;64162;53.508;10.476;2023-02-15T04:22:11;102379.81;;;4.93;74.92
75585;BME280;64162;53.508;10.476;2023-02-15T04:24:56;102378.19;;;4.89;75.44
75585;BME280;64162;53.508;10.476;2023-02-15T04:27:48;102371.25;;;4.88;75.09
75585;BME280;64162;53.508;10.476;2023-02-15T04:30:17;102372.09;;;4.88;75.46
75585;BME280;64162;53.508;10.476;2023-02-15T04:32:45;102361.66;;;4.88;75.21
75585;BME280;64162;53.508;10.476;2023-02-15T04:35:12;102352.13;;;4.87;75.37
75585;BME280;64162;53.508;10.476;2023-02-15T04:37:40;102360.63;;;4.94;75.13
75585;BME280;64162;53.508;10.476;2023-02-15T04:40:09;102351.00;;;4.96;75.12
75585;BME280;64162;53.508;10.476;2023-02-15T04:42:35;102356.31;;;4.93;75.06
75585;BME280;64162;53.508;10.476;2023-02-15T04:45:02;102364.22;;;4.90;75.20
75585;BME280;64162;53.508;10.476;2023-02-15T04:47:29;102359.91;;;4.89;74.89
75585;BME280;64162;53.508;10.476;2023-02-15T04:49:55;102365.91;;;4.92;75.12
75585;BME280;64162;53.508;10.476;2023-02-15T04:52:23;102367.44;;;5.00;75.01
75585;BME280;64162;53.508;10.476;2023-02-15T04:54:50;102355.28;;;4.98;75.24
75585;BME280;64162;53.508;10.476;2023-02-15T04:57:16;102354.41;;;4.98;75.14
75585;BME280;64162;53.508;10.476;2023-02-15T04:59:43;102354.41;;;4.98;74.91
75585;BME280;64162;53.508;10.476;2023-02-15T05:02:09;102353.56;;;4.97;74.86
75585;BME280;64162;53.508;10.476;2023-02-15T05:04:36;102353.59;;;4.96;74.82
75585;BME280;64162;53.508;10.476;2023-02-15T05:07:02;102356.13;;;4.99;74.23
75585;BME280;64162;53.508;10.476;2023-02-15T05:09:29;102359.72;;;4.95;74.30
75585;BME280;64162;53.508;10.476;2023-02-15T05:11:55;102340.72;;;4.90;74.18
75585;BME280;64162;53.508;10.476;2023-02-15T05:14:22;102346.00;;;4.88;74.52
75585;BME280;64162;53.508;10.476;2023-02-15T05:16:48;102343.38;;;4.88;74.42
75585;BME280;64162;53.508;10.476;2023-02-15T05:19:15;102335.59;;;4.87;74.19
75585;BME280;64162;53.508;10.476;2023-02-15T05:21:42;102327.06;;;4.80;74.00
75585;BME280;64162;53.508;10.476;2023-02-15T05:24:08;102329.72;;;4.79;74.27
75585;BME280;64162;53.508;10.476;2023-02-15T05:26:53;102328.94;;;4.77;74.28
75585;BME280;64162;53.508;10.476;2023-02-15T05:29:39;102336.81;;;4.75;74.25
75585;BME280;64162;53.508;10.476;2023-02-15T05:32:05;102327.34;;;4.71;74.46
75585;BME280;64162;53.508;10.476;2023-02-15T05:34:32;102324.72;;;4.71;74.56
75585;BME280;64162;53.508;10.476;2023-02-15T05:36:58;102331.75;;;4.69;74.37
75585;BME280;64162;53.508;10.476;2023-02-15T05:39:24;102333.41;;;4.72;74.50
75585;BME280;64162;53.508;10.476;2023-02-15T05:41:51;102333.38;;;4.73;74.59
75585;BME280;64162;53.508;10.476;2023-02-15T05:44:17;102326.44;;;4.72;74.17
75585;BME280;64162;53.508;10.476;2023-02-15T05:46:44;102319.41;;;4.74;74.50
75585;BME280;64162;53.508;10.476;2023-02-15T05:49:10;102324.56;;;4.77;74.79
75585;BME280;64162;53.508;10.476;2023-02-15T05:51:37;102320.16;;;4.79;74.54
75585;BME280;64162;53.508;10.476;2023-02-15T05:54:03;102316.78;;;4.76;74.30
75585;BME280;64162;53.508;10.476;2023-02-15T05:56:30;102311.53;;;4.76;74.59
75585;BME280;64162;53.508;10.476;2023-02-15T05:58:56;102317.66;;;4.75;74.25
75585;BME280;64162;53.508;10.476;2023-02-15T06:01:23;102302.91;;;4.74;74.43
75585;BME280;64162;53.508;10.476;2023-02-15T06:03:49;102311.63;;;4.73;73.80
75585;BME280;64162;53.508;10.476;2023-02-15T06:06:16;102322.97;;;4.72;73.94
75585;BME280;64162;53.508;10.476;2023-02-15T06:08:42;102320.63;;;4.62;74.24
75585;BME280;64162;53.508;10.476;2023-02-15T06:11:09;102320.63;;;4.62;73.88
75585;BME280;64162;53.508;10.476;2023-02-15T06:13:36;102325.75;;;4.65;73.99
75585;BME280;64162;53.508;10.476;2023-02-15T06:16:04;102322.34;;;4.63;73.86
75585;BME280;64162;53.508;10.476;2023-02-15T06:18:31;102317.00;;;4.68;73.73
75585;BME280;64162;53.508;10.476;2023-02-15T06:20:58;102310.91;;;4.68;74.48
75585;BME280;64162;53.508;10.476;2023-02-15T06:23:24;102308.16;;;4.72;73.76
75585;BME280;64162;53.508;10.476;2023-02-15T06:25:51;102326.53;;;4.69;73.75
75585;BME280;64162;53.508;10.476;2023-02-15T06:28:17;102316.94;;;4.70;73.90
75585;BME280;64162;53.508;10.476;2023-02-15T06:30:43;102325.53;;;4.73;73.46
75585;BME280;64162;53.508;10.476;2023-02-15T06:33:10;102323.91;;;4.69;73.38
75585;BME280;64162;53.508;10.476;2023-02-15T06:35:36;102323.06;;;4.69;73.19
75585;BME280;64162;53.508;10.476;2023-02-15T06:38:03;102328.19;;;4.72;73.17
75585;BME280;64162;53.508;10.476;2023-02-15T06:40:29;102315.31;;;4.65;73.10
75585;BME280;64162;53.508;10.476;2023-02-15T06:42:56;102316.25;;;4.63;73.31
75585;BME280;64162;53.508;10.476;2023-02-15T06:45:22;102308.38;;;4.64;72.99
75585;BME280;64162;53.508;10.476;2023-02-15T06:47:49;102310.09;;;4.65;73.10
75585;BME280;64162;53.508;10.476;2023-02-15T06:50:15;102304.88;;;4.65;73.16
75585;BME280;64162;53.508;10.476;2023-02-15T06:52:42;102309.19;;;4.67;73.17
75585;BME280;64162;53.508;10.476;2023-02-15T06:55:08;102302.13;;;4.70;73.06
75585;BME280;64162;53.508;10.476;2023-02-15T06:57:35;102297.81;;;4.69;73.24
75585;BME280;64162;53.508;10.476;2023-02-15T07:00:02;102290.75;;;4.73;73.02
75585;BME280;64162;53.508;10.476;2023-02-15T07:02:31;102288.19;;;4.71;72.86
75585;BME280;64162;53.508;10.476;2023-02-15T07:04:58;102294.97;;;4.77;72.91
75585;BME280;64162;53.508;10.476;2023-02-15T07:07:24;102294.88;;;4.80;72.60
75585;BME280;64162;53.508;10.476;2023-02-15T07:09:51;102287.97;;;4.79;72.64
75585;BME280;64162;53.508;10.476;2023-02-15T07:12:17;102299.16;;;4.82;72.42
75585;BME280;64162;53.508;10.476;2023-02-15T07:15:02;102300.84;;;4.85;72.46
75585;BME280;64162;53.508;10.476;2023-02-15T07:17:30;102311.19;;;4.88;72.19
75585;BME280;64162;53.508;10.476;2023-02-15T07:20:12;102309.31;;;4.93;72.09
75585;BME280;64162;53.508;10.476;2023-02-15T07:22:39;102302.53;;;4.86;72.48
75585;BME280;64162;53.508;10.476;2023-02-15T07:25:07;102312.75;;;4.93;72.06
75585;BME280;64162;53.508;10.476;2023-02-15T07:27:34;102304.66;;;5.03;71.95
75585;BME280;64162;53.508;10.476;2023-02-15T07:30:01;102298.53;;;5.04;72.04
75585;BME280;64162;53.508;10.476;2023-02-15T07:32:31;102291.38;;;5.10;71.37
75585;BME280;64162;53.508;10.476;2023-02-15T07:34:59;102284.44;;;5.09;71.34
75585;BME280;64162;53.508;10.476;2023-02-15T07:37:26;102294.88;;;5.09;71.42
75585;BME280;64162;53.508;10.476;2023-02-15T07:39:53;102294.78;;;5.12;71.41
75585;BME280;64162;53.508;10.476;2023-02-15T07:42:19;102293.97;;;5.10;71.44
75585;BME280;64162;53.508;10.476;2023-02-15T07:44:47;102284.81;;;5.23;71.49
75585;BME280;64162;53.508;10.476;2023-02-15T07:47:13;102282.91;;;5.28;71.16
75585;BME280;64162;53.508;10.476;2023-02-15T07:49:40;102286.25;;;5.34;71.54
75585;BME280;64162;53.508;10.476;2023-02-15T07:52:06;102286.59;;;5.49;71.56
75585;BME280;64162;53.508;10.476;2023-02-15T07:54:33;102287.00;;;5.63;71.19
75585;BME280;64162;53.508;10.476;2023-02-15T07:57:00;102279.63;;;5.76;70.67
75585;BME280;64162;53.508;10.476;2023-02-15T07:59:27;102276.66;;;5.85;70.00
75585;BME280;64162;53.508;10.476;2023-02-15T08:01:53;102266.06;;;5.90;69.52
75585;BME280;64162;53.508;10.476;2023-02-15T08:04:23;102263.19;;;5.97;69.15
75585;BME280;64162;53.508;10.476;2023-02-15T08:06:52;102267.34;;;6.03;69.44
75585;BME280;64162;53.508;10.476;2023-02-15T08:09:19;102261.22;;;6.04;69.37
75585;BME280;64162;53.508;10.476;2023-02-15T08:12:00;102265.38;;;6.10;69.33
75585;BME280;64162;53.508;10.476;2023-02-15T08:14:27;102265.09;;;6.17;68.71
75585;BME280;64162;53.508;10.476;2023-02-15T08:16:55;102265.81;;;6.22;68.42
75585;BME280;64162;53.508;10.476;2023-02-15T08:19:28;102261.16;;;6.31;68.60
75585;BME280;64162;53.508;10.476;2023-02-15T08:22:02;102252.69;;;6.46;67.79
75585;BME280;64162;53.508;10.476;2023-02-15T08:24:32;102255.72;;;6.58;68.17
75585;BME280;64162;53.508;10.476;2023-02-15T08:26:59;102247.34;;;6.72;66.87
75585;BME280;64162;53.508;10.476;2023-02-15T08:29:27;102246.44;;;6.73;67.44
75585;BME280;64162;53.508;10.476;2023-02-15T08:31:56;102252.00;;;6.87;67.02
75585;BME280;64162;53.508;10.476;2023-02-15T08:34:25;102251.53;;;6.98;67.12
75585;BME280;64162;53.508;10.476;2023-02-15T08:36:51;102249.84;;;6.97;66.58
75585;BME280;64162;53.508;10.476;2023-02-15T08:39:18;102249.66;;;7.02;66.07
75585;BME280;64162;53.508;10.476;2023-02-15T08:41:46;102245.09;;;6.85;66.50
75585;BME280;64162;53.508;10.476;2023-02-15T08:44:14;102236.16;;;6.90;66.18
75585;BME280;64162;53.508;10.476;2023-02-15T08:46:42;102240.53;;;6.90;66.10
75585;BME280;64162;53.508;10.476;2023-02-15T08:49:12;102242.44;;;6.86;66.01
75585;BME280;64162;53.508;10.476;2023-02-15T08:51:39;102242.59;;;6.82;65.81
75585;BME280;64162;53.508;10.476;2023-02-15T08:54:08;102237.47;;;6.79;65.89
75585;BME280;64162;53.508;10.476;2023-02-15T08:56:38;102239.53;;;6.71;65.79
75585;BME280;64162;53.508;10.476;2023-02-15T08:59:06;102241.44;;;6.89;65.23
75585;BME280;64162;53.508;10.476;2023-02-15T09:01:34;102234.13;;;6.97;65.31
75585;BME280;64162;53.508;10.476;2023-02-15T09:04:03;102241.13;;;6.96;65.72
75585;BME280;64162;53.508;10.476;2023-02-15T09:06:31;102236.22;;;6.89;65.46
75585;BME280;64162;53.508;10.476;2023-02-15T09:08:58;102234.81;;;6.80;66.27
75585;BME280;64162;53.508;10.476;2023-02-15T09:11:29;102230.75;;;6.93;65.94
75585;BME280;64162;53.508;10.476;2023-02-15T09:13:59;102227.50;;;6.88;66.16
75585;BME280;64162;53.508;10.476;2023-02-15T09:16:28;102230.22;;;7.07;65.76
75585;BME280;64162;53.508;10.476;2023-02-15T09:18:56;102233.72;;;6.86;66.02
75585;BME280;64162;53.508;10.476;2023-02-15T09:21:28;102233.53;;;6.90;64.89
75585;BME280;64162;53.508;10.476;2023-02-15T09:24:00;102223.94;;;6.68;66.30
75585;BME280;64162;53.508;10.476;2023-02-15T09:26:29;102235.41;;;6.87;65.69
75585;BME280;64162;53.508;10.476;2023-02-15T09:28:58;102222.59;;;7.01;65.80
75585;BME280;64162;53.508;10.476;2023-02-15T09:31:30;102223.03;;;7.12;65.26
75585;BME280;64162;53.508;10.476;2023-02-15T09:33:58;102217.66;;;7.15;65.88
75585;BME280;64162;53.508;10.476;2023-02-15T09:36:37;102211.72;;;7.32;65.32
75585;BME280;64162;53.508;10.476;2023-02-15T09:44:54;102220.78;;;7.66;64.58
75585;BME280;64162;53.508;10.476;2023-02-15T10:03:12;102213.09;;;8.41;61.73
75585;BME280;64162;53.508;10.476;2023-02-15T10:06:00;102214.16;;;8.55;62.00
75585;BME280;64162;53.508;10.476;2023-02-15T10:14:23;102216.13;;;9.05;61.00
75585;BME280;64162;53.508;10.476;2023-02-15T10:25:43;102212.75;;;9.55;58.93
75585;BME280;64162;53.508;10.476;2023-02-15T10:28:18;102214.38;;;9.57;57.84
75585;BME280;64162;53.508;10.476;2023-02-15T10:30:50;102217.63;;;9.63;57.58
75585;BME280;64162;53.508;10.476;2023-02-15T10:33:38;102221.44;;;9.57;58.34
75585;BME280;64162;53.508;10.476;2023-02-15T10:36:18;102208.97;;;9.78;58.07
75585;BME280;64162;53.508;10.476;2023-02-15T10:39:06;102216.31;;;9.71;58.38
75585;BME280;64162;53.508;10.476;2023-02-15T10:41:53;102226.44;;;9.79;57.85
75585;BME280;64162;53.508;10.476;2023-02-15T10:58:42;102207.84;;;10.15;56.19
75585;BME280;64162;53.508;10.476;2023-02-15T11:01:25;102198.94;;;10.17;56.14
75585;BME280;64162;53.508;10.476;2023-02-15T11:06:51;102201.53;;;10.50;56.26
75585;BME280;64162;53.508;10.476;2023-02-15T11:09:22;102194.22;;;10.55;56.02
75585;BME280;64162;53.508;10.476;2023-02-15T11:11:55;102193.91;;;10.62;55.67
75585;BME280;64162;53.508;10.476;2023-02-15T11:16:59;102191.19;;;10.79;54.39
75585;BME280;64162;53.508;10.476;2023-02-15T11:19:32;102182.97;;;10.99;54.64
75585;BME280;64162;53.508;10.476;2023-02-15T11:22:05;102180.81;;;11.06;54.26
75585;BME280;64162;53.508;10.476;2023-02-15T11:24:39;102174.88;;;11.02;53.75
75585;BME280;64162;53.508;10.476;2023-02-15T11:30:05;102173.84;;;11.05;53.81
75585;BME280;64162;53.508;10.476;2023-02-15T11:32:42;102177.69;;;10.99;53.95
75585;BME280;64162;53.508;10.476;2023-02-15T11:38:12;102163.88;;;11.10;53.87
75585;BME280;64162;53.508;10.476;2023-02-15T11:40:49;102168.44;;;10.92;55.08
75585;BME280;64162;53.508;10.476;2023-02-15T11:43:21;102162.72;;;11.00;54.45
75585;BME280;64162;53.508;10.476;2023-02-15T11:45:50;102156.59;;;10.99;55.09
75585;BME280;64162;53.508;10.476;2023-02-15T11:48:17;102157.66;;;11.11;54.14
75585;BME280;64162;53.508;10.476;2023-02-15T11:50:44;102153.41;;;11.08;54.35
75585;BME280;64162;53.508;10.476;2023-02-15T11:53:32;102160.53;;;10.92;55.05
75585;BME280;64162;53.508;10.476;2023-02-15T11:56:00;102141.75;;;11.12;54.94
75585;BME280;64162;53.508;10.476;2023-02-15T11:58:36;102132.09;;;11.27;54.25
75585;BME280;64162;53.508;10.476;2023-02-15T12:01:11;102128.06;;;11.36;54.87
75585;BME280;64162;53.508;10.476;2023-02-15T12:03:55;102134.66;;;11.57;53.77
75585;BME280;64162;53.508;10.476;2023-02-15T12:06:30;102128.81;;;11.66;53.90
75585;BME280;64162;53.508;10.476;2023-02-15T12:09:28;102130.25;;;11.72;53.76
75585;BME280;64162;53.508;10.476;2023-02-15T12:14:54;102120.94;;;11.80;52.89
75585;BME280;64162;53.508;10.476;2023-02-15T12:17:55;102121.22;;;12.04;53.07
75585;BME280;64162;53.508;10.476;2023-02-15T12:23:01;102119.03;;;12.11;52.77
75585;BME280;64162;53.508;10.476;2023-02-15T12:25:54;102129.63;;;12.38;52.38
75585;BME280;64162;53.508;10.476;2023-02-15T12:28:36;102124.91;;;12.02;52.68
75585;BME280;64162;53.508;10.476;2023-02-15T12:31:35;102122.81;;;12.07;52.74
75585;BME280;64162;53.508;10.476;2023-02-15T12:34:09;102118.03;;;12.26;52.53
75585;BME280;64162;53.508;10.476;2023-02-15T12:36:49;102113.13;;;12.34;52.65
75585;BME280;64162;53.508;10.476;2023-02-15T12:39:28;102112.94;;;12.37;52.44
75585;BME280;64162;53.508;10.476;2023-02-15T12:44:28;102097.06;;;12.37;52.28
75585;BME280;64162;53.508;10.476;2023-02-15T12:49:30;102080.66;;;12.32;52.19
75585;BME280;64162;53.508;10.476;2023-02-15T12:52:00;102085.38;;;12.27;52.36
75585;BME280;64162;53.508;10.476;2023-02-15T12:54:30;102072.38;;;12.24;52.99
75585;BME280;64162;53.508;10.476;2023-02-15T12:56:58;102070.56;;;12.24;52.47
75585;BME280;64162;53.508;10.476;2023-02-15T12:59:25;102081.34;;;12.21;52.69
75585;BME280;64162;53.508;10.476;2023-02-15T13:01:52;102071.91;;;12.17;52.54
75585;BME280;64162;53.508;10.476;2023-02-15T13:04:29;102074.63;;;12.30;52.53
75585;BME280;64162;53.508;10.476;2023-02-15T13:06:58;102068.69;;;12.27;52.98
75585;BME280;64162;53.508;10.476;2023-02-15T13:12:10;102062.66;;;12.24;52.86
75585;BME280;64162;53.508;10.476;2023-02-15T13:14:37;102053.69;;;12.00;53.10
75585;BME280;64162;53.508;10.476;2023-02-15T13:17:04;102059.34;;;11.80;53.86
75585;BME280;64162;53.508;10.476;2023-02-15T13:19:42;102061.50;;;11.73;54.35
75585;BME280;64162;53.508;10.476;2023-02-15T13:22:14;102062.44;;;11.58;54.54
75585;BME280;64162;53.508;10.476;2023-02-15T13:24:47;102063.75;;;11.65;54.92
75585;BME280;64162;53.508;10.476;2023-02-15T13:27:17;102074.41;;;11.64;54.32
75585;BME280;64162;53.508;10.476;2023-02-15T13:29:51;102070.38;;;11.58;55.01
75585;BME280;64162;53.508;10.476;2023-02-15T13:32:29;102062.47;;;11.44;55.57
75585;BME280;64162;53.508;10.476;2023-02-15T13:34:59;102062.00;;;11.51;55.50
75585;BME280;64162;53.508;10.476;2023-02-15T13:40:23;102052.47;;;11.49;55.68
75585;BME280;64162;53.508;10.476;2023-02-15T13:42:56;102044.56;;;11.49;55.48
75585;BME280;64162;53.508;10.476;2023-02-15T13:51:41;102033.41;;;11.72;55.20
75585;BME280;64162;53.508;10.476;2023-02-15T13:54:24;102028.13;;;11.72;55.19
75585;BME280;64162;53.508;10.476;2023-02-15T13:56:58;102037.94;;;11.56;55.42
75585;BME280;64162;53.508;10.476;2023-02-15T14:02:36;102032.88;;;11.24;56.12
75585;BME280;64162;53.508;10.476;2023-02-15T14:05:40;102036.41;;;11.09;56.33
75585;BME280;64162;53.508;10.476;2023-02-15T14:08:27;102029.91;;;11.01;57.14
75585;BME280;64162;53.508;10.476;2023-02-15T14:13:54;102019.69;;;10.66;57.94
75585;BME280;64162;53.508;10.476;2023-02-15T14:21:59;102011.19;;;10.00;59.98
75585;BME280;64162;53.508;10.476;2023-02-15T14:24:38;102017.66;;;9.78;60.68
75585;BME280;64162;53.508;10.476;2023-02-15T14:27:19;102011.97;;;9.70;60.64
75585;BME280;64162;53.508;10.476;2023-02-15T14:29:53;102010.59;;;9.63;61.12
75585;BME280;64162;53.508;10.476;2023-02-15T14:32:33;102012.47;;;9.61;61.65
75585;BME280;64162;53.508;10.476;2023-02-15T14:35:12;102014.50;;;9.56;61.85
75585;BME280;64162;53.508;10.476;2023-02-15T14:37:46;102006.00;;;9.51;62.24
75585;BME280;64162;53.508;10.476;2023-02-15T14:46:27;102017.09;;;9.40;63.22
75585;BME280;64162;53.508;10.476;2023-02-15T14:49:04;102013.59;;;9.40;63.29
75585;BME280;64162;53.508;10.476;2023-02-15T14:59:54;102018.25;;;9.35;64.05
75585;BME280;64162;53.508;10.476;2023-02-15T15:02:50;102018.50;;;9.30;63.89
75585;BME280;64162;53.508;10.476;2023-02-15T15:05:21;102012.56;;;9.26;63.88
75585;BME280;64162;53.508;10.476;2023-02-15T15:07:55;102022.66;;;9.18;64.41
75585;BME280;64162;53.508;10.476;2023-02-15T15:12:54;102003.75;;;8.94;64.88
75585;BME280;64162;53.508;10.476;2023-02-15T15:18:02;102007.38;;;8.92;64.94
75585;BME280;64162;53.508;10.476;2023-02-15T15:20:49;101992.63;;;8.89;65.24
75585;BME280;64162;53.508;10.476;2023-02-15T15:25:56;101998.34;;;8.80;65.43
75585;BME280;64162;53.508;10.476;2023-02-15T15:33:58;101998.72;;;8.73;65.36
75585;BME280;64162;53.508;10.476;2023-02-15T15:50:33;101999.81;;;8.69;65.08
75585;BME280;64162;53.508;10.476;2023-02-15T15:53:02;101997.44;;;8.64;65.34
75585;BME280;64162;53.508;10.476;2023-02-15T15:55:31;101994.50;;;8.53;65.54
75585;BME280;64162;53.508;10.476;2023-02-15T15:58:03;101993.94;;;8.46;66.09
75585;BME280;64162;53.508;10.476;2023-02-15T16:00:42;101992.41;;;8.42;66.29
75585;BME280;64162;53.508;10.476;2023-02-15T16:03:28;101991.13;;;8.32;66.75